Time;durP1;ratioP1;P1;durP2;ratioP2;P2;SDS_P1;SDS_P2;PMS_P1;PMS_P2;Temp;Humidity;BMP_temperature;BMP_pressure;BME280_temperature;BME280_humidity;BME280_pressure;Samples;Min_cycle;Max_cycle;Signal;HPM_P1;HPM_P2
2023/09/04 00:00:08;;;;;;;1.37;1.27;;;;;;;18.94;69.66;93624.53;513981;28;868;-46
2023/09/04 00:00:23;;;;;;;1.60;1.50;;;;;;;18.93;69.65;93628.63;513954;28;810;-46
2023/09/04 00:00:38;;;;;;;2.43;1.50;;;;;;;18.93;69.38;93620.25;513971;28;827;-46
2023/09/04 00:00:56;;;;;;;2.17;1.30;;;;;;;18.92;69.48;93627.94;513991;28;852;-47
2023/09/04 00:01:11;;;;;;;2.20;1.35;;;;;;;18.90;69.46;93619.41;513978;28;851;-47
2023/09/04 00:01:26;;;;;;;1.97;1.50;;;;;;;18.91;69.21;93622.91;514022;28;802;-47
2023/09/04 00:01:42;;;;;;;1.83;1.50;;;;;;;18.90;68.99;93622.19;513935;28;1382;-46
2023/09/04 00:01:57;;;;;;;1.58;1.45;;;;;;;18.90;69.25;93627.06;513852;28;926;-46
2023/09/04 00:02:13;;;;;;;1.60;1.50;;;;;;;18.89;69.38;93623.50;513970;28;935;-46
2023/09/04 00:02:28;;;;;;;1.60;1.50;;;;;;;18.88;69.34;93624.84;514143;28;803;-47
2023/09/04 00:02:43;;;;;;;1.33;1.23;;;;;;;18.89;69.41;93619.97;514161;28;851;-46
2023/09/04 00:02:59;;;;;;;1.13;1.00;;;;;;;18.89;69.27;93622.78;513882;28;868;-49
2023/09/04 00:03:15;;;;;;;1.77;1.30;;;;;;;18.87;69.20;93623.38;514082;28;1028;-46
2023/09/04 00:03:30;;;;;;;2.77;1.50;;;;;;;18.87;69.27;93631.03;513970;28;1922;-47
2023/09/04 00:03:46;;;;;;;2.25;1.25;;;;;;;18.83;69.28;93622.38;514091;28;821;-47
2023/09/04 00:04:03;;;;;;;1.00;1.00;;;;;;;18.81;69.12;93625.03;513985;28;972;-49
2023/09/04 00:04:19;;;;;;;1.15;1.02;;;;;;;18.81;69.46;93625.78;514113;28;852;-46
2023/09/04 00:04:34;;;;;;;1.07;1.00;;;;;;;18.76;69.64;93624.03;513928;28;2320;-46
2023/09/04 00:04:51;;;;;;;1.20;1.00;;;;;;;18.73;69.56;93622.44;513730;28;1450;-47
2023/09/04 00:05:07;;;;;;;1.40;1.10;;;;;;;18.72;69.89;93620.25;513921;28;848;-46
2023/09/04 00:05:22;;;;;;;1.20;1.10;;;;;;;18.73;69.90;93625.22;513984;28;777;-46
2023/09/04 00:05:38;;;;;;;1.20;1.10;;;;;;;18.72;70.12;93617.44;513944;28;927;-47
2023/09/04 00:05:54;;;;;;;1.30;1.20;;;;;;;18.72;70.02;93620.97;513979;28;858;-46
2023/09/04 00:06:09;;;;;;;1.40;1.30;;;;;;;18.72;69.92;93620.25;513891;28;860;-47
2023/09/04 00:06:25;;;;;;;1.40;1.30;;;;;;;18.70;69.89;93614.50;513101;28;1233;-48
2023/09/04 00:06:41;;;;;;;1.38;1.27;;;;;;;18.71;70.07;93624.38;512121;28;883;-48
2023/09/04 00:06:56;;;;;;;1.27;1.17;;;;;;;18.71;69.82;93613.19;512151;28;1136;-46
2023/09/04 00:07:12;;;;;;;1.10;1.00;;;;;;;18.69;69.91;93618.66;512111;28;844;-48
2023/09/04 00:07:27;;;;;;;1.23;1.13;;;;;;;18.68;69.69;93626.31;513869;28;1318;-47
2023/09/04 00:07:42;;;;;;;1.40;1.30;;;;;;;18.68;69.77;93614.38;514153;28;911;-46
2023/09/04 00:07:58;;;;;;;1.50;1.23;;;;;;;18.67;69.88;93616.44;513980;28;921;-47
2023/09/04 00:08:13;;;;;;;1.43;1.13;;;;;;;18.65;70.10;93612.78;514133;28;824;-46
2023/09/04 00:08:28;;;;;;;1.37;1.17;;;;;;;18.65;70.40;93619.09;514101;28;808;-46
2023/09/04 00:08:44;;;;;;;1.42;1.30;;;;;;;18.65;70.72;93615.56;514112;28;912;-47
2023/09/04 00:08:59;;;;;;;1.40;1.30;;;;;;;18.50;70.68;93591.53;514109;28;797;-48
2023/09/04 00:09:15;;;;;;;1.40;1.30;;;;;;;18.62;70.22;93611.19;514184;28;785;-47
2023/09/04 00:09:30;;;;;;;1.70;1.40;;;;;;;18.62;70.20;93608.38;513966;28;1189;-47
2023/09/04 00:09:46;;;;;;;1.77;1.30;;;;;;;18.54;70.07;93602.25;514146;28;845;-47
2023/09/04 00:10:02;;;;;;;1.52;1.25;;;;;;;18.61;70.38;93613.25;514009;28;829;-47
2023/09/04 00:10:19;;;;;;;1.30;1.20;;;;;;;18.61;70.65;93606.91;514048;28;939;-47
2023/09/04 00:10:34;;;;;;;1.90;1.38;;;;;;;18.61;70.74;93612.50;514109;28;908;-46
2023/09/04 00:10:49;;;;;;;1.90;1.30;;;;;;;18.61;70.79;93606.91;514055;28;880;-46
2023/09/04 00:11:05;;;;;;;1.40;1.30;;;;;;;18.61;70.78;93606.91;514068;28;932;-46
2023/09/04 00:11:20;;;;;;;1.50;1.40;;;;;;;18.61;70.71;93599.25;514035;28;848;-46
2023/09/04 00:11:35;;;;;;;1.30;1.20;;;;;;;18.62;70.66;93602.78;514178;28;793;-46
2023/09/04 00:11:51;;;;;;;1.73;1.20;;;;;;;18.62;70.60;93603.53;514073;28;773;-47
2023/09/04 00:12:06;;;;;;;2.20;1.27;;;;;;;18.62;70.65;93606.34;514011;28;877;-47
2023/09/04 00:12:22;;;;;;;1.50;1.25;;;;;;;18.61;70.91;93601.31;514118;28;816;-47
2023/09/04 00:12:37;;;;;;;1.30;1.20;;;;;;;18.60;71.13;93599.88;514101;28;870;-47
2023/09/04 00:12:52;;;;;;;1.17;1.08;;;;;;;18.61;71.10;93606.91;514118;28;801;-46
2023/09/04 00:13:08;;;;;;;1.20;1.10;;;;;;;18.52;70.35;93599.31;514157;28;774;-46
2023/09/04 00:13:23;;;;;;;1.30;1.20;;;;;;;18.49;70.03;93606.84;514089;28;818;-46
2023/09/04 00:13:40;;;;;;;1.80;1.30;;;;;;;18.50;70.54;93610.34;514116;28;1052;-46
2023/09/04 00:13:55;;;;;;;1.63;1.25;;;;;;;18.50;70.80;93602.72;514120;28;860;-47
2023/09/04 00:14:11;;;;;;;1.30;1.20;;;;;;;18.50;70.66;93602.72;513976;28;801;-46
2023/09/04 00:14:27;;;;;;;1.33;1.23;;;;;;;18.51;71.03;93598.59;514071;28;920;-46
2023/09/04 00:14:42;;;;;;;1.30;1.20;;;;;;;18.52;71.11;93599.31;514079;28;859;-46
2023/09/04 00:14:58;;;;;;;1.20;1.10;;;;;;;18.53;71.07;93600.78;514097;28;860;-47
2023/09/04 00:15:13;;;;;;;1.20;1.10;;;;;;;18.54;70.95;93597.38;514101;28;853;-46
2023/09/04 00:15:29;;;;;;;1.30;1.20;;;;;;;18.55;71.00;93598.88;514117;28;865;-46
2023/09/04 00:15:44;;;;;;;1.80;1.20;;;;;;;18.45;70.91;93583.47;514123;28;845;-47
2023/09/04 00:16:00;;;;;;;1.92;1.10;;;;;;;18.55;70.99;93590.47;514009;28;1635;-46
2023/09/04 00:16:15;;;;;;;1.20;1.10;;;;;;;18.56;70.92;93594.00;514079;28;865;-46
2023/09/04 00:16:31;;;;;;;1.20;1.10;;;;;;;18.39;70.97;93567.00;514100;28;826;-46
2023/09/04 00:16:47;;;;;;;1.30;1.20;;;;;;;18.55;71.19;93592.53;514083;28;916;-46
2023/09/04 00:17:02;;;;;;;1.40;1.30;;;;;;;18.56;71.02;93594.72;514137;28;872;-46
2023/09/04 00:17:18;;;;;;;1.20;1.13;;;;;;;18.57;71.04;93596.19;514054;28;1599;-47
2023/09/04 00:17:34;;;;;;;1.20;1.10;;;;;;;18.57;70.76;93587.06;514156;28;829;-46
2023/09/04 00:17:50;;;;;;;1.40;1.30;;;;;;;18.58;70.41;93591.34;514038;28;1691;-47
2023/09/04 00:18:06;;;;;;;1.33;1.20;;;;;;;18.55;70.46;93584.88;514007;28;923;-47
2023/09/04 00:18:25;;;;;;;1.10;1.00;;;;;;;18.59;70.48;93587.94;514122;28;866;-47
2023/09/04 00:18:40;;;;;;;1.13;1.02;;;;;;;18.59;70.60;93590.75;514046;28;825;-47
2023/09/04 00:18:55;;;;;;;1.43;1.33;;;;;;;18.60;70.80;93592.19;514070;28;810;-47
2023/09/04 00:19:11;;;;;;;1.50;1.40;;;;;;;18.60;70.83;93597.78;514089;28;786;-47
2023/09/04 00:19:26;;;;;;;1.15;1.05;;;;;;;18.61;70.98;93590.13;514095;28;869;-47
2023/09/04 00:19:42;;;;;;;1.20;1.10;;;;;;;18.61;70.90;93590.88;514084;28;847;-47
2023/09/04 00:19:57;;;;;;;1.37;1.27;;;;;;;18.62;70.74;93597.22;514056;28;833;-48
2023/09/04 00:20:12;;;;;;;1.33;1.23;;;;;;;18.62;70.60;93595.16;513985;28;1151;-47
2023/09/04 00:20:28;;;;;;;1.20;1.10;;;;;;;18.63;70.62;93590.25;513946;28;1084;-45
2023/09/04 00:20:43;;;;;;;1.40;1.30;;;;;;;18.64;70.72;93591.75;514114;28;811;-46
2023/09/04 00:20:58;;;;;;;1.38;1.27;;;;;;;18.63;70.60;93588.22;514130;28;825;-46
2023/09/04 00:21:14;;;;;;;1.20;1.10;;;;;;;18.65;70.52;93590.41;514060;28;982;-47
2023/09/04 00:21:29;;;;;;;1.33;1.20;;;;;;;18.65;70.33;93590.41;514036;28;860;-47
2023/09/04 00:21:44;;;;;;;1.33;1.20;;;;;;;18.65;70.06;93593.19;514212;28;773;-46
2023/09/04 00:22:00;;;;;;;1.40;1.13;;;;;;;18.64;70.44;93584.09;513950;28;766;-47
2023/09/04 00:22:15;;;;;;;1.37;1.27;;;;;;;18.65;70.22;93590.41;514155;28;905;-49
2023/09/04 00:22:31;;;;;;;1.30;1.20;;;;;;;18.64;70.25;93592.47;514043;28;813;-46
2023/09/04 00:22:46;;;;;;;1.17;1.00;;;;;;;18.64;69.87;93581.28;514076;28;1208;-47
2023/09/04 00:23:02;;;;;;;1.30;1.20;;;;;;;18.62;70.09;93586.75;514026;28;941;-50
2023/09/04 00:23:17;;;;;;;1.38;1.27;;;;;;;18.63;69.89;93587.47;514097;28;847;-45
2023/09/04 00:23:33;;;;;;;1.58;1.20;;;;;;;18.62;69.80;93586.75;513951;28;2061;-47
2023/09/04 00:23:48;;;;;;;2.10;1.40;;;;;;;18.63;70.00;93587.47;514022;28;861;-46
2023/09/04 00:24:04;;;;;;;1.73;1.40;;;;;;;18.62;69.92;93586.75;513969;28;932;-47
2023/09/04 00:24:21;;;;;;;1.30;1.20;;;;;;;18.63;70.21;93587.47;514057;28;959;-48
2023/09/04 00:24:37;;;;;;;1.23;1.10;;;;;;;18.63;70.09;93591.00;514059;28;920;-47
2023/09/04 00:24:52;;;;;;;1.80;1.17;;;;;;;18.65;70.16;93596.00;514129;28;766;-47
2023/09/04 00:25:07;;;;;;;1.90;1.23;;;;;;;18.57;69.98;93581.47;514059;28;950;-46
2023/09/04 00:25:23;;;;;;;1.23;1.13;;;;;;;18.66;70.20;93591.88;513972;28;866;-47
2023/09/04 00:25:38;;;;;;;1.23;1.13;;;;;;;18.67;70.22;93596.13;514010;28;849;-47
2023/09/04 00:25:54;;;;;;;1.40;1.20;;;;;;;18.67;70.37;93594.06;513945;28;2500;-49
2023/09/04 00:26:09;;;;;;;1.40;1.30;;;;;;;18.67;70.41;93591.28;513977;28;884;-47
2023/09/04 00:26:25;;;;;;;1.30;1.20;;;;;;;18.68;70.46;93592.00;514130;28;827;-48
2023/09/04 00:26:40;;;;;;;1.13;1.03;;;;;;;18.70;70.60;93594.94;514074;28;860;-46
2023/09/04 00:26:56;;;;;;;1.07;1.03;;;;;;;18.70;70.43;93587.28;514056;28;765;-46
2023/09/04 00:27:11;;;;;;;1.20;1.10;;;;;;;18.70;70.53;93590.09;514125;28;844;-48
2023/09/04 00:27:26;;;;;;;1.20;1.10;;;;;;;18.71;70.74;93593.63;514026;28;900;-46
2023/09/04 00:27:42;;;;;;;1.17;1.07;;;;;;;18.71;70.79;93593.63;514075;28;868;-47
2023/09/04 00:27:57;;;;;;;1.20;1.10;;;;;;;18.71;70.92;93599.94;514034;28;809;-46
2023/09/04 00:28:13;;;;;;;1.10;1.00;;;;;;;18.72;70.90;93606.25;514055;28;908;-47
2023/09/04 00:28:28;;;;;;;1.20;1.10;;;;;;;18.72;70.72;93600.66;514075;28;840;-47
2023/09/04 00:28:44;;;;;;;1.30;1.20;;;;;;;18.72;70.39;93589.47;514040;28;860;-46
2023/09/04 00:29:00;;;;;;;1.13;1.10;;;;;;;18.72;70.05;93604.19;514027;28;777;-47
2023/09/04 00:29:15;;;;;;;1.10;1.00;;;;;;;18.75;69.85;93608.56;514024;28;849;-47
2023/09/04 00:29:30;;;;;;;1.00;0.90;;;;;;;18.75;69.81;93602.97;514069;28;848;-46
2023/09/04 00:29:46;;;;;;;1.13;1.03;;;;;;;18.77;69.66;93605.19;514112;28;770;-46
2023/09/04 00:30:01;;;;;;;0.93;0.90;;;;;;;18.78;69.56;93609.44;513968;28;1600;-46
2023/09/04 00:30:17;;;;;;;1.15;1.00;;;;;;;18.78;69.55;93601.78;514017;28;868;-47
2023/09/04 00:30:32;;;;;;;1.70;1.33;;;;;;;18.79;69.50;93608.88;514055;28;829;-48
2023/09/04 00:30:48;;;;;;;1.30;1.20;;;;;;;18.80;69.61;93604.72;514063;28;876;-46
2023/09/04 00:31:03;;;;;;;1.13;1.03;;;;;;;18.82;69.45;93604.13;514039;28;762;-46
2023/09/04 00:31:19;;;;;;;1.10;1.00;;;;;;;18.83;69.54;93605.59;514062;28;848;-47
2023/09/04 00:31:34;;;;;;;1.40;1.00;;;;;;;18.83;69.58;93603.53;514072;28;982;-47
2023/09/04 00:31:49;;;;;;;1.83;1.00;;;;;;;18.83;69.49;93606.34;514028;28;880;-46
2023/09/04 00:32:06;;;;;;;1.30;0.90;;;;;;;18.86;69.48;93607.22;514007;28;781;-47
2023/09/04 00:32:21;;;;;;;1.00;1.00;;;;;;;18.86;69.42;93604.41;513985;28;872;-46
2023/09/04 00:32:36;;;;;;;1.20;1.13;;;;;;;18.86;69.34;93601.59;513991;28;908;-47
2023/09/04 00:32:52;;;;;;;1.47;1.10;;;;;;;18.86;69.24;93596.00;514093;28;778;-47
2023/09/04 00:33:07;;;;;;;1.45;1.10;;;;;;;18.87;69.21;93608.66;514040;28;861;-46
2023/09/04 00:33:23;;;;;;;1.20;1.10;;;;;;;18.88;68.90;93599.66;514005;28;777;-46
2023/09/04 00:33:38;;;;;;;1.00;1.00;;;;;;;18.88;68.80;93598.94;514040;28;873;-46
2023/09/04 00:33:53;;;;;;;1.20;1.10;;;;;;;18.89;68.63;93606.00;514073;28;1555;-47
2023/09/04 00:34:09;;;;;;;1.35;1.15;;;;;;;18.88;68.36;93602.44;513989;28;840;-47
2023/09/04 00:34:24;;;;;;;1.37;1.17;;;;;;;18.91;68.48;93600.53;514101;28;778;-46
2023/09/04 00:34:40;;;;;;;1.27;1.10;;;;;;;18.93;68.33;93609.03;514072;28;939;-48
2023/09/04 00:34:55;;;;;;;1.05;1.00;;;;;;;18.93;68.39;93603.44;514085;28;801;-48
2023/09/04 00:35:13;;;;;;;1.40;1.07;;;;;;;18.94;68.26;93602.13;514050;28;891;-46
2023/09/04 00:35:29;;;;;;;1.60;1.20;;;;;;;18.95;68.00;93600.06;514034;28;820;-46
2023/09/04 00:35:44;;;;;;;1.20;1.10;;;;;;;18.97;67.74;93608.59;514101;28;1032;-47
2023/09/04 00:36:02;;;;;;;1.10;1.00;;;;;;;18.97;67.75;93608.59;513947;28;946;-47
2023/09/04 00:36:17;;;;;;;1.00;0.90;;;;;;;18.97;67.70;93600.94;513996;28;829;-48
2023/09/04 00:36:32;;;;;;;0.93;0.90;;;;;;;18.97;67.53;93603.75;513975;28;1056;-47
2023/09/04 00:36:48;;;;;;;2.23;1.17;;;;;;;18.97;67.53;93597.41;514060;28;815;-46
2023/09/04 00:37:04;;;;;;;2.80;1.40;;;;;;;18.98;67.67;93602.41;514068;28;801;-46
2023/09/04 00:37:19;;;;;;;1.30;1.20;;;;;;;18.99;67.55;93594.75;513969;28;922;-48
2023/09/04 00:37:34;;;;;;;1.30;1.10;;;;;;;18.99;67.30;93603.13;514101;28;952;-50
2023/09/04 00:37:50;;;;;;;1.90;1.30;;;;;;;19.00;67.48;93607.38;514115;28;801;-47
2023/09/04 00:38:05;;;;;;;1.80;1.30;;;;;;;18.99;67.22;93601.06;513918;28;1287;-48
2023/09/04 00:38:20;;;;;;;1.30;1.10;;;;;;;19.00;67.04;93601.78;514054;28;895;-47
2023/09/04 00:38:36;;;;;;;1.30;1.20;;;;;;;18.99;67.03;93598.28;514038;28;833;-47
2023/09/04 00:38:51;;;;;;;1.33;1.23;;;;;;;19.00;66.83;93601.78;514007;28;935;-46
2023/09/04 00:39:06;;;;;;;1.10;1.00;;;;;;;19.00;66.45;93601.78;514051;28;947;-47
2023/09/04 00:39:22;;;;;;;1.02;0.93;;;;;;;19.01;66.39;93598.41;513985;28;836;-46
2023/09/04 00:39:37;;;;;;;1.20;1.10;;;;;;;19.01;66.18;93595.59;514075;28;866;-47
2023/09/04 00:39:52;;;;;;;1.10;1.00;;;;;;;19.02;66.11;93601.91;514103;28;796;-46
2023/09/04 00:40:08;;;;;;;1.00;0.90;;;;;;;19.03;66.23;93601.34;513932;28;844;-46
2023/09/04 00:40:24;;;;;;;1.10;0.90;;;;;;;19.03;66.40;93600.59;513934;28;1075;-47
2023/09/04 00:40:39;;;;;;;1.50;1.00;;;;;;;19.03;66.27;93600.59;513945;28;965;-46
2023/09/04 00:40:54;;;;;;;1.30;1.00;;;;;;;19.03;66.42;93600.59;514016;28;873;-47
2023/09/04 00:41:10;;;;;;;1.07;1.03;;;;;;;19.03;66.60;93609.72;514059;28;847;-47
2023/09/04 00:41:25;;;;;;;0.80;0.80;;;;;;;19.02;66.75;93602.66;514084;28;773;-47
2023/09/04 00:41:40;;;;;;;0.80;0.80;;;;;;;19.04;66.66;93604.84;514028;28;888;-47
2023/09/04 00:41:56;;;;;;;0.90;0.90;;;;;;;19.05;66.54;93598.66;514011;28;943;-46
2023/09/04 00:42:13;;;;;;;0.90;0.90;;;;;;;19.06;66.61;93599.41;513916;28;852;-46
2023/09/04 00:42:29;;;;;;;0.95;0.95;;;;;;;19.06;66.52;93596.59;513977;28;872;-46
2023/09/04 00:42:45;;;;;;;1.10;1.00;;;;;;;19.05;66.83;93598.66;514059;28;809;-47
2023/09/04 00:43:00;;;;;;;1.08;1.02;;;;;;;19.05;66.73;93593.06;514104;28;836;-47
2023/09/04 00:43:16;;;;;;;1.20;1.10;;;;;;;19.06;67.08;93596.59;513972;28;931;-46
2023/09/04 00:43:35;;;;;;;1.52;0.95;;;;;;;19.04;66.88;93594.38;513981;28;1976;-48
2023/09/04 00:43:51;;;;;;;1.10;0.90;;;;;;;19.04;66.74;93594.38;514017;28;882;-47
2023/09/04 00:44:06;;;;;;;0.93;0.90;;;;;;;19.04;66.37;93599.25;513977;28;916;-48
2023/09/04 00:44:22;;;;;;;1.20;1.07;;;;;;;19.02;66.09;93599.84;513934;28;916;-46
2023/09/04 00:44:37;;;;;;;1.17;1.07;;;;;;;19.02;66.29;93601.91;514032;28;868;-48
2023/09/04 00:44:53;;;;;;;0.90;0.90;;;;;;;19.00;66.27;93601.78;513982;28;809;-47
2023/09/04 00:45:11;;;;;;;0.80;0.80;;;;;;;18.99;66.61;93598.28;513974;28;890;-47
2023/09/04 00:45:27;;;;;;;1.17;0.80;;;;;;;18.99;66.62;93600.34;513907;28;804;-47
2023/09/04 00:45:43;;;;;;;1.10;0.80;;;;;;;18.97;66.70;93597.41;513844;28;1650;-47
2023/09/04 00:45:58;;;;;;;1.20;1.00;;;;;;;18.97;66.73;93597.41;511722;29;910;-48
2023/09/04 00:46:14;;;;;;;1.70;1.33;;;;;;;18.96;66.69;93605.06;509911;29;891;-46
2023/09/04 00:46:29;;;;;;;1.37;1.27;;;;;;;18.96;66.90;93605.06;507918;29;832;-47
2023/09/04 00:46:45;;;;;;;1.15;1.05;;;;;;;18.97;66.56;93605.81;506032;29;817;-46
2023/09/04 00:47:00;;;;;;;1.30;1.17;;;;;;;18.97;66.16;93605.81;505922;29;1176;-46
2023/09/04 00:47:20;;;;;;;1.40;1.13;;;;;;;18.95;65.90;93603.59;504089;29;869;-47
2023/09/04 00:47:35;;;;;;;1.20;1.10;;;;;;;18.95;65.74;93597.28;504869;29;899;-47
2023/09/04 00:47:50;;;;;;;1.13;1.10;;;;;;;18.95;65.67;93600.78;506785;29;960;-46
2023/09/04 00:48:06;;;;;;;0.90;0.90;;;;;;;18.95;65.66;93597.28;508580;29;1035;-46
2023/09/04 00:48:21;;;;;;;0.80;0.80;;;;;;;18.95;65.38;93600.06;510660;29;1160;-48
2023/09/04 00:48:38;;;;;;;0.80;0.80;;;;;;;18.83;65.42;93589.56;512603;28;880;-46
2023/09/04 00:48:54;;;;;;;0.80;0.80;;;;;;;18.92;65.10;93599.94;513797;28;1150;-46
2023/09/04 00:49:10;;;;;;;0.87;0.87;;;;;;;18.91;64.99;93600.53;512864;28;1215;-46
2023/09/04 00:49:27;;;;;;;1.10;0.90;;;;;;;18.91;65.25;93597.72;513844;28;895;-47
2023/09/04 00:49:42;;;;;;;1.10;0.98;;;;;;;18.90;65.06;93593.47;513761;28;1152;-47
2023/09/04 00:49:58;;;;;;;0.90;0.90;;;;;;;18.83;64.99;93588.81;513782;28;820;-46
2023/09/04 00:50:16;;;;;;;0.73;0.73;;;;;;;18.89;64.92;93592.00;513755;28;1071;-47
2023/09/04 00:50:32;;;;;;;1.02;0.85;;;;;;;18.87;65.11;93594.66;511749;29;1078;-46
2023/09/04 00:50:47;;;;;;;1.35;1.05;;;;;;;18.89;65.06;93592.00;511771;29;841;-47
2023/09/04 00:51:02;;;;;;;1.50;1.10;;;;;;;18.88;65.15;93596.16;512785;28;904;-46
2023/09/04 00:51:18;;;;;;;1.23;1.10;;;;;;;18.88;65.35;93594.06;511876;29;806;-46
2023/09/04 00:51:34;;;;;;;1.08;1.00;;;;;;;18.88;65.47;93587.75;511891;29;790;-48
2023/09/04 00:51:50;;;;;;;1.20;1.00;;;;;;;18.88;66.34;93593.34;511839;29;849;-47
2023/09/04 00:52:05;;;;;;;1.40;1.10;;;;;;;18.88;65.98;93598.94;511746;29;856;-47
2023/09/04 00:52:22;;;;;;;1.05;0.95;;;;;;;18.89;66.06;93597.59;510350;29;821;-48
2023/09/04 00:52:38;;;;;;;1.00;1.00;;;;;;;18.88;65.60;93596.16;509769;28;894;-47
2023/09/04 00:52:57;;;;;;;1.15;1.00;;;;;;;18.87;65.51;93589.81;509925;28;806;-46
2023/09/04 00:53:13;;;;;;;0.95;0.82;;;;;;;18.87;65.15;93594.66;510991;29;873;-46
2023/09/04 00:53:29;;;;;;;0.93;0.90;;;;;;;18.87;64.93;93591.88;511839;28;900;-47
2023/09/04 00:53:44;;;;;;;0.95;0.93;;;;;;;18.87;65.04;93597.47;509871;29;1019;-48
2023/09/04 00:54:00;;;;;;;1.10;1.03;;;;;;;18.87;65.53;93597.47;507883;29;786;-46
2023/09/04 00:54:16;;;;;;;1.20;1.10;;;;;;;18.86;65.44;93593.94;509206;29;885;-46
2023/09/04 00:54:32;;;;;;;1.10;1.00;;;;;;;18.86;65.41;93605.13;509853;29;817;-47
2023/09/04 00:54:48;;;;;;;1.13;1.03;;;;;;;18.86;65.27;93599.53;509901;29;876;-46
2023/09/04 00:55:05;;;;;;;1.02;1.00;;;;;;;18.76;65.33;93592.53;510530;29;904;-46
2023/09/04 00:55:20;;;;;;;0.90;0.90;;;;;;;18.85;65.63;93595.28;511781;29;927;-47
2023/09/04 00:55:37;;;;;;;0.88;0.88;;;;;;;18.84;65.57;93598.69;510521;29;857;-46
2023/09/04 00:55:52;;;;;;;0.95;0.85;;;;;;;18.86;65.73;93604.41;510604;29;2587;-47
2023/09/04 00:56:12;;;;;;;0.88;0.80;;;;;;;18.87;65.82;93603.06;509845;29;791;-46
2023/09/04 00:56:27;;;;;;;1.00;0.85;;;;;;;18.86;65.57;93604.41;509817;29;900;-46
2023/09/04 00:56:43;;;;;;;1.30;1.10;;;;;;;18.86;65.52;93596.72;509899;29;865;-47
2023/09/04 00:57:02;;;;;;;2.00;1.10;;;;;;;18.87;65.27;93601.00;509767;29;853;-46
2023/09/04 00:57:18;;;;;;;1.90;0.93;;;;;;;18.87;65.46;93600.25;509778;29;873;-46
2023/09/04 00:57:35;;;;;;;1.00;0.90;;;;;;;18.85;65.30;93597.34;511476;29;892;-46
2023/09/04 00:57:51;;;;;;;0.88;0.80;;;;;;;18.86;65.30;93599.53;511750;28;1090;-46
2023/09/04 00:58:07;;;;;;;1.00;0.90;;;;;;;18.86;65.36;93599.53;513493;28;852;-48
2023/09/04 00:58:22;;;;;;;0.90;0.90;;;;;;;18.87;65.25;93597.47;513821;28;971;-46
2023/09/04 00:58:37;;;;;;;0.90;0.90;;;;;;;18.86;65.19;93593.94;513793;28;962;-46
2023/09/04 00:58:53;;;;;;;0.95;0.95;;;;;;;18.86;65.21;93593.22;513947;28;802;-45
2023/09/04 00:59:08;;;;;;;1.20;1.10;;;;;;;18.86;65.08;93596.72;515805;28;900;-46
2023/09/04 00:59:24;;;;;;;1.03;0.93;;;;;;;18.86;64.99;93591.13;515799;28;1068;-48
2023/09/04 00:59:40;;;;;;;1.17;0.98;;;;;;;18.87;65.04;93589.06;515655;28;1113;-48
2023/09/04 00:59:56;;;;;;;1.10;1.00;;;;;;;18.87;64.63;93589.81;515831;28;813;-46
2023/09/04 01:00:19;;;;;;;1.08;1.08;;;;;;;18.86;64.71;93596.72;515770;28;985;-46
2023/09/04 01:00:34;;;;;;;0.90;0.90;;;;;;;18.87;64.61;93586.28;515752;28;910;-46
2023/09/04 01:00:50;;;;;;;1.00;1.00;;;;;;;18.80;64.43;93585.16;515810;28;773;-46
2023/09/04 01:01:06;;;;;;;1.02;1.00;;;;;;;18.87;64.61;93598.22;512309;28;864;-46
2023/09/04 01:01:21;;;;;;;1.02;1.00;;;;;;;18.88;65.02;93593.34;511769;28;1094;-47
2023/09/04 01:01:37;;;;;;;1.10;1.00;;;;;;;18.87;65.00;93589.81;511880;28;786;-49
2023/09/04 01:01:52;;;;;;;1.10;1.00;;;;;;;18.87;64.92;93589.06;511834;29;857;-47
2023/09/04 01:02:08;;;;;;;0.90;0.90;;;;;;;18.87;64.85;93592.59;511756;29;810;-46
2023/09/04 01:02:23;;;;;;;1.00;0.90;;;;;;;18.87;64.66;93589.81;509683;28;1207;-46
2023/09/04 01:02:39;;;;;;;0.80;0.80;;;;;;;18.88;64.91;93590.56;509819;29;934;-47
2023/09/04 01:02:56;;;;;;;1.13;0.85;;;;;;;18.87;65.03;93589.81;510207;29;965;-47
2023/09/04 01:03:12;;;;;;;1.15;0.95;;;;;;;18.88;64.68;93587.75;512436;28;827;-47
2023/09/04 01:03:29;;;;;;;1.10;1.00;;;;;;;18.88;64.75;93590.56;513730;28;1930;-46
2023/09/04 01:03:44;;;;;;;0.90;0.90;;;;;;;18.87;64.85;93589.81;513802;28;1248;-46
2023/09/04 01:04:00;;;;;;;0.90;0.90;;;;;;;18.87;64.83;93583.47;513692;28;919;-46
2023/09/04 01:04:15;;;;;;;0.90;0.90;;;;;;;18.86;64.71;93591.13;513938;28;789;-47
2023/09/04 01:04:31;;;;;;;0.90;0.90;;;;;;;18.86;64.76;93584.81;513885;28;920;-47
2023/09/04 01:04:46;;;;;;;1.07;1.00;;;;;;;18.86;64.99;93587.63;513809;28;1360;-47
2023/09/04 01:05:01;;;;;;;1.07;1.00;;;;;;;18.86;65.25;93588.34;513925;28;1551;-46
2023/09/04 01:05:17;;;;;;;1.10;1.00;;;;;;;18.84;65.40;93585.41;514009;28;806;-46
2023/09/04 01:05:32;;;;;;;1.03;0.93;;;;;;;18.85;65.33;93586.16;513957;28;957;-47
2023/09/04 01:05:48;;;;;;;1.13;1.00;;;;;;;18.86;65.27;93582.03;513936;28;782;-47
2023/09/04 01:06:04;;;;;;;1.10;1.00;;;;;;;18.86;65.37;93579.22;513918;28;852;-46
2023/09/04 01:06:19;;;;;;;1.30;1.13;;;;;;;18.87;65.62;93583.47;513383;28;1068;-47
2023/09/04 01:06:35;;;;;;;1.52;1.20;;;;;;;18.88;65.80;93580.06;513984;28;1072;-47
2023/09/04 01:06:52;;;;;;;1.63;1.10;;;;;;;18.88;65.77;93582.16;513904;28;860;-46
2023/09/04 01:07:08;;;;;;;1.70;1.25;;;;;;;18.89;65.68;93581.53;513953;28;860;-47
2023/09/04 01:07:23;;;;;;;1.33;1.17;;;;;;;18.88;65.53;93568.16;513945;28;1317;-46
2023/09/04 01:07:40;;;;;;;2.10;1.10;;;;;;;18.88;65.55;93576.56;515747;28;1141;-47
2023/09/04 01:07:56;;;;;;;1.83;1.10;;;;;;;18.89;65.44;93572.41;515844;28;858;-47
2023/09/04 01:08:12;;;;;;;1.23;1.10;;;;;;;18.90;65.46;93579.50;513761;28;781;-47
2023/09/04 01:08:28;;;;;;;1.48;1.00;;;;;;;18.91;65.30;93575.34;513830;28;797;-46
2023/09/04 01:08:43;;;;;;;0.98;0.93;;;;;;;18.90;65.12;93580.22;511816;29;952;-46
2023/09/04 01:08:58;;;;;;;1.07;0.97;;;;;;;18.91;65.26;93578.13;511778;29;921;-47
2023/09/04 01:09:14;;;;;;;1.20;1.10;;;;;;;18.91;65.13;93572.53;511855;29;872;-46
2023/09/04 01:09:29;;;;;;;1.13;1.02;;;;;;;18.92;65.06;93571.22;511068;29;1112;-47
2023/09/04 01:09:45;;;;;;;1.20;0.90;;;;;;;18.92;64.82;93568.44;509894;28;870;-47
2023/09/04 01:10:03;;;;;;;1.17;1.00;;;;;;;18.92;64.90;93565.63;510232;29;790;-49
2023/09/04 01:10:18;;;;;;;1.15;1.05;;;;;;;18.93;64.87;93567.09;511702;29;899;-47
2023/09/04 01:11:35;;;;;;;1.30;1.20;;;;;;;18.95;65.16;93569.28;511874;29;1040;-47
2023/09/04 01:12:08;;;;;;;1.25;1.00;;;;;;;18.93;65.22;93559.44;507593;29;1195;-46
2023/09/04 01:12:45;;;;;;;0.70;0.70;;;;;;;18.93;65.06;93558.69;509647;29;2579;-46
2023/09/04 01:13:07;;;;;;;1.20;1.00;;;;;;;18.92;65.18;93552.38;507707;29;807;-46
2023/09/04 01:13:42;;;;;;;0.98;0.90;;;;;;;18.92;65.40;93549.59;507675;29;993;-47
2023/09/04 01:13:57;;;;;;;1.10;1.00;;;;;;;18.91;65.52;93550.91;507683;29;892;-46
2023/09/04 01:14:17;;;;;;;1.33;1.20;;;;;;;18.92;65.70;93543.25;507734;29;914;-47
2023/09/04 01:14:33;;;;;;;1.20;1.10;;;;;;;18.92;65.76;93543.25;505713;29;1006;-47
2023/09/04 01:14:53;;;;;;;1.00;1.00;;;;;;;18.92;66.05;93543.25;511790;29;1144;-47
2023/09/04 01:15:09;;;;;;;1.10;1.00;;;;;;;18.91;66.09;93545.31;509806;29;865;-47
2023/09/04 01:15:26;;;;;;;1.17;0.90;;;;;;;18.92;66.15;93537.66;511589;29;808;-47
2023/09/04 01:15:41;;;;;;;1.08;1.00;;;;;;;18.92;66.16;93535.59;509602;29;884;-49
2023/09/04 01:15:56;;;;;;;1.30;1.20;;;;;;;18.92;66.86;93532.78;509789;29;823;-46
2023/09/04 01:16:12;;;;;;;1.37;1.23;;;;;;;18.93;67.06;93536.31;509757;29;880;-46
2023/09/04 01:16:28;;;;;;;1.35;1.08;;;;;;;18.93;67.27;93528.66;511127;29;881;-48
2023/09/04 01:16:44;;;;;;;1.20;1.08;;;;;;;18.93;67.01;93525.09;508733;29;848;-47
2023/09/04 01:16:59;;;;;;;2.13;1.10;;;;;;;18.93;67.28;93520.25;508527;29;1071;-47
2023/09/04 01:17:15;;;;;;;2.10;1.02;;;;;;;18.93;66.98;93514.66;509828;29;982;-46
2023/09/04 01:17:31;;;;;;;1.00;1.00;;;;;;;18.94;67.16;93521.00;508380;29;1176;-47
2023/09/04 01:17:48;;;;;;;2.27;1.10;;;;;;;18.93;67.26;93513.91;509851;29;806;-46
2023/09/04 01:18:03;;;;;;;2.38;1.15;;;;;;;18.92;67.15;93513.22;511763;29;820;-46
2023/09/04 01:18:19;;;;;;;1.20;1.10;;;;;;;18.92;67.21;93506.88;509759;28;788;-48
2023/09/04 01:18:35;;;;;;;1.08;0.95;;;;;;;18.93;67.14;93502.72;508542;29;905;-47
2023/09/04 01:18:52;;;;;;;1.10;1.00;;;;;;;18.93;67.24;93497.88;511774;28;919;-46
2023/09/04 01:19:10;;;;;;;1.27;1.17;;;;;;;18.92;67.34;93504.06;511866;28;861;-47